sensor_id;sensor_type;location;lat;lon;timestamp;P1;P4;P2;P0;N10;N4;N25;N1;N05;TS
43196;SPS30;28816;49.852;18.282;2022-09-24T00:00:42;18.910000;;18.960000;17.830000;;;;;;
43196;SPS30;28816;49.852;18.282;2022-09-24T00:05:44;18.920000;;18.890000;17.860000;;;;;;
43196;SPS30;28816;49.852;18.282;2022-09-24T00:10:47;17.800000;;17.820000;16.730000;;;;;;
43196;SPS30;28816;49.852;18.282;2022-09-24T00:15:49;18.070000;;18.020000;17.020000;;;;;;
43196;SPS30;28816;49.852;18.282;2022-09-24T00:20:51;18.740000;;18.670000;17.840000;;;;;;
43196;SPS30;28816;49.852;18.282;2022-09-24T00:25:53;17.250000;;17.340000;15.990000;;;;;;
43196;SPS30;28816;49.852;18.282;2022-09-24T00:30:55;16.790000;;16.830000;15.820000;;;;;;
43196;SPS30;28816;49.852;18.282;2022-09-24T00:35:57;17.170000;;17.240000;15.980000;;;;;;
43196;SPS30;28816;49.852;18.282;2022-09-24T00:41:00;16.330000;;16.320000;15.460000;;;;;;
43196;SPS30;28816;49.852;18.282;2022-09-24T00:46:02;16.840000;;16.740000;15.950000;;;;;;
43196;SPS30;28816;49.852;18.282;2022-09-24T00:51:09;18.410000;;18.230000;17.350000;;;;;;
43196;SPS30;28816;49.852;18.282;2022-09-24T00:56:14;15.850000;;15.810000;14.860000;;;;;;
43196;SPS30;28816;49.852;18.282;2022-09-24T01:01:18;16.710000;;16.640000;15.620000;;;;;;
43196;SPS30;28816;49.852;18.282;2022-09-24T01:06:21;17.610000;;17.530000;16.530000;;;;;;
43196;SPS30;28816;49.852;18.282;2022-09-24T01:11:24;19.030000;;18.950000;18.020000;;;;;;
43196;SPS30;28816;49.852;18.282;2022-09-24T01:16:34;19.540000;;19.410000;18.510000;;;;;;
43196;SPS30;28816;49.852;18.282;2022-09-24T01:21:40;17.940000;;17.940000;16.790000;;;;;;
43196;SPS30;28816;49.852;18.282;2022-09-24T01:26:46;22.210000;;22.330000;20.870000;;;;;;
43196;SPS30;28816;49.852;18.282;2022-09-24T01:31:54;21.530000;;21.420000;19.980000;;;;;;
43196;SPS30;28816;49.852;18.282;2022-09-24T01:36:58;21.170000;;20.970000;19.680000;;;;;;
43196;SPS30;28816;49.852;18.282;2022-09-24T01:42:01;19.780000;;19.830000;18.650000;;;;;;
43196;SPS30;28816;49.852;18.282;2022-09-24T01:47:04;18.000000;;17.990000;17.040000;;;;;;
43196;SPS30;28816;49.852;18.282;2022-09-24T01:52:07;21.040000;;20.930000;19.860000;;;;;;
43196;SPS30;28816;49.852;18.282;2022-09-24T01:57:12;19.500000;;19.500000;18.320000;;;;;;
43196;SPS30;28816;49.852;18.282;2022-09-24T02:02:16;18.220000;;17.990000;17.130000;;;;;;
43196;SPS30;28816;49.852;18.282;2022-09-24T02:07:21;19.960000;;20.080000;18.790000;;;;;;
43196;SPS30;28816;49.852;18.282;2022-09-24T02:12:26;17.970000;;17.950000;17.000000;;;;;;
43196;SPS30;28816;49.852;18.282;2022-09-24T02:17:31;17.910000;;17.850000;16.760000;;;;;;
43196;SPS30;28816;49.852;18.282;2022-09-24T02:22:35;17.530000;;17.550000;16.590000;;;;;;
43196;SPS30;28816;49.852;18.282;2022-09-24T02:27:38;16.760000;;16.750000;15.810000;;;;;;
43196;SPS30;28816;49.852;18.282;2022-09-24T02:32:40;15.890000;;15.760000;15.060000;;;;;;
43196;SPS30;28816;49.852;18.282;2022-09-24T02:37:43;16.460000;;16.390000;15.340000;;;;;;
43196;SPS30;28816;49.852;18.282;2022-09-24T02:42:45;16.460000;;16.370000;15.570000;;;;;;
43196;SPS30;28816;49.852;18.282;2022-09-24T02:47:47;14.190000;;14.110000;13.540000;;;;;;
43196;SPS30;28816;49.852;18.282;2022-09-24T02:52:49;15.260000;;15.310000;14.350000;;;;;;
43196;SPS30;28816;49.852;18.282;2022-09-24T02:57:51;16.120000;;16.040000;15.260000;;;;;;
43196;SPS30;28816;49.852;18.282;2022-09-24T03:02:53;15.350000;;15.340000;14.560000;;;;;;
43196;SPS30;28816;49.852;18.282;2022-09-24T03:07:55;16.010000;;15.940000;15.180000;;;;;;
43196;SPS30;28816;49.852;18.282;2022-09-24T03:12:57;15.080000;;15.010000;14.350000;;;;;;
43196;SPS30;28816;49.852;18.282;2022-09-24T03:17:59;16.160000;;16.130000;15.310000;;;;;;
43196;SPS30;28816;49.852;18.282;2022-09-24T03:23:01;16.840000;;16.800000;16.000000;;;;;;
43196;SPS30;28816;49.852;18.282;2022-09-24T03:28:03;14.260000;;14.240000;13.460000;;;;;;
43196;SPS30;28816;49.852;18.282;2022-09-24T03:33:06;15.180000;;15.200000;14.330000;;;;;;
43196;SPS30;28816;49.852;18.282;2022-09-24T03:38:08;15.950000;;15.940000;15.030000;;;;;;
43196;SPS30;28816;49.852;18.282;2022-09-24T03:43:10;14.590000;;14.500000;13.880000;;;;;;
43196;SPS30;28816;49.852;18.282;2022-09-24T03:48:12;15.780000;;15.690000;14.760000;;;;;;
43196;SPS30;28816;49.852;18.282;2022-09-24T03:53:15;15.930000;;15.910000;15.130000;;;;;;
43196;SPS30;28816;49.852;18.282;2022-09-24T03:58:17;15.040000;;15.040000;14.190000;;;;;;
43196;SPS30;28816;49.852;18.282;2022-09-24T04:03:19;16.090000;;16.110000;15.160000;;;;;;
43196;SPS30;28816;49.852;18.282;2022-09-24T04:08:21;16.020000;;15.970000;15.010000;;;;;;
43196;SPS30;28816;49.852;18.282;2022-09-24T04:13:23;15.020000;;14.860000;14.290000;;;;;;
43196;SPS30;28816;49.852;18.282;2022-09-24T04:18:25;16.260000;;16.170000;15.360000;;;;;;
43196;SPS30;28816;49.852;18.282;2022-09-24T04:23:27;15.210000;;15.220000;14.270000;;;;;;
43196;SPS30;28816;49.852;18.282;2022-09-24T04:28:30;15.110000;;15.010000;14.410000;;;;;;
43196;SPS30;28816;49.852;18.282;2022-09-24T04:33:32;15.000000;;15.020000;14.170000;;;;;;
43196;SPS30;28816;49.852;18.282;2022-09-24T04:38:34;16.010000;;16.000000;15.080000;;;;;;
43196;SPS30;28816;49.852;18.282;2022-09-24T04:43:36;16.390000;;16.360000;15.420000;;;;;;
43196;SPS30;28816;49.852;18.282;2022-09-24T04:48:38;16.550000;;16.540000;15.610000;;;;;;
43196;SPS30;28816;49.852;18.282;2022-09-24T04:53:40;15.800000;;15.720000;14.800000;;;;;;
43196;SPS30;28816;49.852;18.282;2022-09-24T04:58:42;15.720000;;15.580000;14.800000;;;;;;
43196;SPS30;28816;49.852;18.282;2022-09-24T05:03:48;18.670000;;18.630000;17.640000;;;;;;
43196;SPS30;28816;49.852;18.282;2022-09-24T05:08:50;16.420000;;16.360000;15.610000;;;;;;
43196;SPS30;28816;49.852;18.282;2022-09-24T05:13:52;16.620000;;16.700000;15.660000;;;;;;
43196;SPS30;28816;49.852;18.282;2022-09-24T05:18:55;19.310000;;19.290000;18.170000;;;;;;
43196;SPS30;28816;49.852;18.282;2022-09-24T05:23:57;19.130000;;19.250000;18.030000;;;;;;
43196;SPS30;28816;49.852;18.282;2022-09-24T05:28:59;16.870000;;16.890000;15.920000;;;;;;
43196;SPS30;28816;49.852;18.282;2022-09-24T05:34:01;17.420000;;17.450000;16.450000;;;;;;
43196;SPS30;28816;49.852;18.282;2022-09-24T05:39:03;17.490000;;17.450000;16.480000;;;;;;
43196;SPS30;28816;49.852;18.282;2022-09-24T05:44:05;17.620000;;17.650000;16.650000;;;;;;
43196;SPS30;28816;49.852;18.282;2022-09-24T05:49:07;17.130000;;17.170000;16.160000;;;;;;
43196;SPS30;28816;49.852;18.282;2022-09-24T05:54:10;14.920000;;14.970000;14.090000;;;;;;
43196;SPS30;28816;49.852;18.282;2022-09-24T05:59:12;17.130000;;17.070000;16.290000;;;;;;
43196;SPS30;28816;49.852;18.282;2022-09-24T06:04:14;17.280000;;17.270000;16.100000;;;;;;
43196;SPS30;28816;49.852;18.282;2022-09-24T06:09:16;16.060000;;15.920000;15.280000;;;;;;
43196;SPS30;28816;49.852;18.282;2022-09-24T06:14:19;16.610000;;16.690000;15.630000;;;;;;
43196;SPS30;28816;49.852;18.282;2022-09-24T06:19:21;15.890000;;15.850000;15.080000;;;;;;
43196;SPS30;28816;49.852;18.282;2022-09-24T06:24:23;17.010000;;17.200000;15.900000;;;;;;
43196;SPS30;28816;49.852;18.282;2022-09-24T06:29:25;16.450000;;16.440000;15.540000;;;;;;
43196;SPS30;28816;49.852;18.282;2022-09-24T06:34:27;15.270000;;15.270000;14.360000;;;;;;
43196;SPS30;28816;49.852;18.282;2022-09-24T06:39:29;15.430000;;15.330000;14.670000;;;;;;
43196;SPS30;28816;49.852;18.282;2022-09-24T06:44:31;15.220000;;15.100000;14.490000;;;;;;
43196;SPS30;28816;49.852;18.282;2022-09-24T06:49:33;14.230000;;14.100000;13.480000;;;;;;
43196;SPS30;28816;49.852;18.282;2022-09-24T06:54:35;15.050000;;15.020000;14.220000;;;;;;
43196;SPS30;28816;49.852;18.282;2022-09-24T06:59:37;14.590000;;14.550000;13.790000;;;;;;
43196;SPS30;28816;49.852;18.282;2022-09-24T07:04:39;14.090000;;14.080000;13.320000;;;;;;
43196;SPS30;28816;49.852;18.282;2022-09-24T07:09:41;13.950000;;13.880000;13.150000;;;;;;
43196;SPS30;28816;49.852;18.282;2022-09-24T07:14:43;16.010000;;16.020000;15.170000;;;;;;
43196;SPS30;28816;49.852;18.282;2022-09-24T07:19:46;15.640000;;15.640000;14.700000;;;;;;
43196;SPS30;28816;49.852;18.282;2022-09-24T07:24:48;17.660000;;17.530000;16.480000;;;;;;
43196;SPS30;28816;49.852;18.282;2022-09-24T07:29:50;18.230000;;18.200000;16.790000;;;;;;
43196;SPS30;28816;49.852;18.282;2022-09-24T07:34:51;17.170000;;16.830000;15.520000;;;;;;
43196;SPS30;28816;49.852;18.282;2022-09-24T07:39:54;16.120000;;15.830000;14.750000;;;;;;
43196;SPS30;28816;49.852;18.282;2022-09-24T07:44:55;18.310000;;17.740000;16.020000;;;;;;
43196;SPS30;28816;49.852;18.282;2022-09-24T07:49:57;18.470000;;18.160000;16.540000;;;;;;
43196;SPS30;28816;49.852;18.282;2022-09-24T07:54:59;17.800000;;16.840000;15.470000;;;;;;
43196;SPS30;28816;49.852;18.282;2022-09-24T08:00:01;20.790000;;20.030000;18.460000;;;;;;
43196;SPS30;28816;49.852;18.282;2022-09-24T08:05:04;19.820000;;18.910000;16.790000;;;;;;
43196;SPS30;28816;49.852;18.282;2022-09-24T08:10:07;18.110000;;17.660000;16.460000;;;;;;
43196;SPS30;28816;49.852;18.282;2022-09-24T08:15:09;22.660000;;21.800000;20.050000;;;;;;
43196;SPS30;28816;49.852;18.282;2022-09-24T08:20:11;20.800000;;19.870000;18.320000;;;;;;
43196;SPS30;28816;49.852;18.282;2022-09-24T08:25:13;21.190000;;20.550000;18.950000;;;;;;
43196;SPS30;28816;49.852;18.282;2022-09-24T08:30:15;24.410000;;23.160000;20.760000;;;;;;
43196;SPS30;28816;49.852;18.282;2022-09-24T08:35:18;22.310000;;21.490000;19.740000;;;;;;
43196;SPS30;28816;49.852;18.282;2022-09-24T08:40:20;27.150000;;25.940000;23.260000;;;;;;
43196;SPS30;28816;49.852;18.282;2022-09-24T08:45:23;30.210000;;28.620000;25.480000;;;;;;
43196;SPS30;28816;49.852;18.282;2022-09-24T08:50:26;29.390000;;27.860000;25.060000;;;;;;
43196;SPS30;28816;49.852;18.282;2022-09-24T08:55:29;24.820000;;23.740000;21.520000;;;;;;
43196;SPS30;28816;49.852;18.282;2022-09-24T09:00:34;23.110000;;22.520000;20.840000;;;;;;
43196;SPS30;28816;49.852;18.282;2022-09-24T09:05:42;20.900000;;20.550000;18.980000;;;;;;
43196;SPS30;28816;49.852;18.282;2022-09-24T09:10:50;22.340000;;21.970000;20.490000;;;;;;
43196;SPS30;28816;49.852;18.282;2022-09-24T09:15:57;19.600000;;19.330000;18.190000;;;;;;
43196;SPS30;28816;49.852;18.282;2022-09-24T09:21:02;16.920000;;16.560000;15.620000;;;;;;
43196;SPS30;28816;49.852;18.282;2022-09-24T09:26:11;12.570000;;12.530000;11.700000;;;;;;
43196;SPS30;28816;49.852;18.282;2022-09-24T09:31:14;14.570000;;14.500000;13.590000;;;;;;
43196;SPS30;28816;49.852;18.282;2022-09-24T09:36:24;12.940000;;12.890000;12.240000;;;;;;
43196;SPS30;28816;49.852;18.282;2022-09-24T09:41:33;12.540000;;12.450000;11.800000;;;;;;
43196;SPS30;28816;49.852;18.282;2022-09-24T09:46:39;10.780000;;10.850000;10.110000;;;;;;
43196;SPS30;28816;49.852;18.282;2022-09-24T09:51:45;9.520000;;9.500000;9.050000;;;;;;
43196;SPS30;28816;49.852;18.282;2022-09-24T09:56:48;9.680000;;9.670000;9.140000;;;;;;
43196;SPS30;28816;49.852;18.282;2022-09-24T10:01:50;8.400000;;8.390000;7.920000;;;;;;
43196;SPS30;28816;49.852;18.282;2022-09-24T10:06:52;7.630000;;7.640000;7.160000;;;;;;
43196;SPS30;28816;49.852;18.282;2022-09-24T10:12:02;8.670000;;8.690000;8.190000;;;;;;
43196;SPS30;28816;49.852;18.282;2022-09-24T10:17:05;8.170000;;8.220000;7.670000;;;;;;
43196;SPS30;28816;49.852;18.282;2022-09-24T10:22:11;7.760000;;7.740000;7.370000;;;;;;
43196;SPS30;28816;49.852;18.282;2022-09-24T10:27:17;7.630000;;7.590000;7.230000;;;;;;
43196;SPS30;28816;49.852;18.282;2022-09-24T10:32:24;6.030000;;6.040000;5.700000;;;;;;
43196;SPS30;28816;49.852;18.282;2022-09-24T10:37:27;6.320000;;6.220000;6.050000;;;;;;
43196;SPS30;28816;49.852;18.282;2022-09-24T10:42:29;6.810000;;6.850000;6.380000;;;;;;
43196;SPS30;28816;49.852;18.282;2022-09-24T10:47:31;7.090000;;7.050000;6.740000;;;;;;
43196;SPS30;28816;49.852;18.282;2022-09-24T10:52:38;6.670000;;6.710000;6.290000;;;;;;
43196;SPS30;28816;49.852;18.282;2022-09-24T10:57:44;6.950000;;6.990000;6.580000;;;;;;
43196;SPS30;28816;49.852;18.282;2022-09-24T11:02:54;7.030000;;6.990000;6.590000;;;;;;
43196;SPS30;28816;49.852;18.282;2022-09-24T11:08:03;7.390000;;7.380000;6.990000;;;;;;
43196;SPS30;28816;49.852;18.282;2022-09-24T11:13:13;7.070000;;7.070000;6.720000;;;;;;
43196;SPS30;28816;49.852;18.282;2022-09-24T11:18:20;7.100000;;7.050000;6.780000;;;;;;
43196;SPS30;28816;49.852;18.282;2022-09-24T11:23:32;8.610000;;8.640000;8.090000;;;;;;
43196;SPS30;28816;49.852;18.282;2022-09-24T11:28:40;9.130000;;9.140000;8.650000;;;;;;
43196;SPS30;28816;49.852;18.282;2022-09-24T11:33:52;6.570000;;6.530000;6.240000;;;;;;
43196;SPS30;28816;49.852;18.282;2022-09-24T11:39:04;6.520000;;6.540000;6.130000;;;;;;
43196;SPS30;28816;49.852;18.282;2022-09-24T11:44:21;5.320000;;5.290000;5.060000;;;;;;
43196;SPS30;28816;49.852;18.282;2022-09-24T11:49:35;4.850000;;4.880000;4.530000;;;;;;
43196;SPS30;28816;49.852;18.282;2022-09-24T11:54:44;4.250000;;4.250000;4.040000;;;;;;
43196;SPS30;28816;49.852;18.282;2022-09-24T11:59:51;3.660000;;3.670000;3.440000;;;;;;
43196;SPS30;28816;49.852;18.282;2022-09-24T12:04:57;2.980000;;3.030000;2.780000;;;;;;
43196;SPS30;28816;49.852;18.282;2022-09-24T12:10:01;2.990000;;3.000000;2.810000;;;;;;
43196;SPS30;28816;49.852;18.282;2022-09-24T12:15:10;2.980000;;3.030000;2.810000;;;;;;
43196;SPS30;28816;49.852;18.282;2022-09-24T12:20:14;2.690000;;2.770000;2.520000;;;;;;
43196;SPS30;28816;49.852;18.282;2022-09-24T12:25:19;2.550000;;2.580000;2.400000;;;;;;
43196;SPS30;28816;49.852;18.282;2022-09-24T12:30:22;2.610000;;2.580000;2.490000;;;;;;
43196;SPS30;28816;49.852;18.282;2022-09-24T12:35:29;2.700000;;2.700000;2.580000;;;;;;
43196;SPS30;28816;49.852;18.282;2022-09-24T12:40:35;3.190000;;3.200000;3.020000;;;;;;
43196;SPS30;28816;49.852;18.282;2022-09-24T12:45:50;3.150000;;3.110000;3.020000;;;;;;
43196;SPS30;28816;49.852;18.282;2022-09-24T12:50:54;2.840000;;2.880000;2.660000;;;;;;
43196;SPS30;28816;49.852;18.282;2022-09-24T12:55:57;2.730000;;2.710000;2.600000;;;;;;
43196;SPS30;28816;49.852;18.282;2022-09-24T13:01:00;2.430000;;2.420000;2.300000;;;;;;
43196;SPS30;28816;49.852;18.282;2022-09-24T13:06:25;3.050000;;3.040000;2.900000;;;;;;
43196;SPS30;28816;49.852;18.282;2022-09-24T13:11:30;2.490000;;2.470000;2.380000;;;;;;
43196;SPS30;28816;49.852;18.282;2022-09-24T13:16:33;2.790000;;2.780000;2.640000;;;;;;
43196;SPS30;28816;49.852;18.282;2022-09-24T13:21:37;3.080000;;3.070000;2.890000;;;;;;
43196;SPS30;28816;49.852;18.282;2022-09-24T13:26:39;2.680000;;2.660000;2.570000;;;;;;
43196;SPS30;28816;49.852;18.282;2022-09-24T13:31:41;2.460000;;2.450000;2.350000;;;;;;
43196;SPS30;28816;49.852;18.282;2022-09-24T13:36:45;2.710000;;2.700000;2.560000;;;;;;
43196;SPS30;28816;49.852;18.282;2022-09-24T13:41:50;2.720000;;2.760000;2.540000;;;;;;
43196;SPS30;28816;49.852;18.282;2022-09-24T13:46:58;2.330000;;2.330000;2.220000;;;;;;
43196;SPS30;28816;49.852;18.282;2022-09-24T13:52:03;2.920000;;2.910000;2.840000;;;;;;
43196;SPS30;28816;49.852;18.282;2022-09-24T13:57:10;2.550000;;2.670000;2.390000;;;;;;
43196;SPS30;28816;49.852;18.282;2022-09-24T14:02:18;2.740000;;2.700000;2.620000;;;;;;
43196;SPS30;28816;49.852;18.282;2022-09-24T14:07:22;3.060000;;3.010000;2.900000;;;;;;
43196;SPS30;28816;49.852;18.282;2022-09-24T14:12:25;3.950000;;3.950000;3.710000;;;;;;
43196;SPS30;28816;49.852;18.282;2022-09-24T14:17:27;2.530000;;2.530000;2.400000;;;;;;
43196;SPS30;28816;49.852;18.282;2022-09-24T14:22:29;2.910000;;2.920000;2.750000;;;;;;
43196;SPS30;28816;49.852;18.282;2022-09-24T14:27:35;3.410000;;3.410000;3.220000;;;;;;
43196;SPS30;28816;49.852;18.282;2022-09-24T14:32:40;3.490000;;3.520000;3.250000;;;;;;
43196;SPS30;28816;49.852;18.282;2022-09-24T14:37:42;3.000000;;3.010000;2.840000;;;;;;
43196;SPS30;28816;49.852;18.282;2022-09-24T14:42:47;3.120000;;3.160000;2.930000;;;;;;
43196;SPS30;28816;49.852;18.282;2022-09-24T14:47:52;3.070000;;3.070000;2.910000;;;;;;
43196;SPS30;28816;49.852;18.282;2022-09-24T14:52:58;4.010000;;4.060000;3.770000;;;;;;
43196;SPS30;28816;49.852;18.282;2022-09-24T14:58:01;3.360000;;3.390000;3.120000;;;;;;
43196;SPS30;28816;49.852;18.282;2022-09-24T15:03:03;2.650000;;2.680000;2.490000;;;;;;
43196;SPS30;28816;49.852;18.282;2022-09-24T15:08:10;3.790000;;3.800000;3.590000;;;;;;
43196;SPS30;28816;49.852;18.282;2022-09-24T15:13:21;3.210000;;3.220000;3.040000;;;;;;
43196;SPS30;28816;49.852;18.282;2022-09-24T15:18:24;3.420000;;3.410000;3.230000;;;;;;
43196;SPS30;28816;49.852;18.282;2022-09-24T15:23:27;4.930000;;4.900000;4.680000;;;;;;
43196;SPS30;28816;49.852;18.282;2022-09-24T15:28:29;4.400000;;4.390000;4.200000;;;;;;
43196;SPS30;28816;49.852;18.282;2022-09-24T15:33:32;4.030000;;4.020000;3.800000;;;;;;
43196;SPS30;28816;49.852;18.282;2022-09-24T15:38:34;3.710000;;3.720000;3.520000;;;;;;
43196;SPS30;28816;49.852;18.282;2022-09-24T15:43:35;4.210000;;4.200000;3.910000;;;;;;
43196;SPS30;28816;49.852;18.282;2022-09-24T15:48:38;4.300000;;4.260000;4.090000;;;;;;
43196;SPS30;28816;49.852;18.282;2022-09-24T15:53:40;4.580000;;4.530000;4.390000;;;;;;
43196;SPS30;28816;49.852;18.282;2022-09-24T15:58:41;4.410000;;4.400000;4.150000;;;;;;
43196;SPS30;28816;49.852;18.282;2022-09-24T16:03:44;4.620000;;4.620000;4.380000;;;;;;
43196;SPS30;28816;49.852;18.282;2022-09-24T16:08:46;4.180000;;4.200000;3.910000;;;;;;
43196;SPS30;28816;49.852;18.282;2022-09-24T16:13:47;4.740000;;4.680000;4.530000;;;;;;
43196;SPS30;28816;49.852;18.282;2022-09-24T16:18:49;4.230000;;4.270000;3.960000;;;;;;
43196;SPS30;28816;49.852;18.282;2022-09-24T16:23:52;4.710000;;4.730000;4.440000;;;;;;
43196;SPS30;28816;49.852;18.282;2022-09-24T16:28:54;4.340000;;4.390000;4.050000;;;;;;
43196;SPS30;28816;49.852;18.282;2022-09-24T16:33:56;4.600000;;4.570000;4.370000;;;;;;
43196;SPS30;28816;49.852;18.282;2022-09-24T16:38:58;4.610000;;4.630000;4.380000;;;;;;
43196;SPS30;28816;49.852;18.282;2022-09-24T16:44:00;4.290000;;4.280000;4.080000;;;;;;
43196;SPS30;28816;49.852;18.282;2022-09-24T16:49:02;5.080000;;5.040000;4.810000;;;;;;
43196;SPS30;28816;49.852;18.282;2022-09-24T16:54:04;5.000000;;5.040000;4.690000;;;;;;
43196;SPS30;28816;49.852;18.282;2022-09-24T16:59:06;5.640000;;5.630000;5.330000;;;;;;
43196;SPS30;28816;49.852;18.282;2022-09-24T17:04:08;6.010000;;6.020000;5.660000;;;;;;
43196;SPS30;28816;49.852;18.282;2022-09-24T17:09:11;5.650000;;5.600000;5.350000;;;;;;
43196;SPS30;28816;49.852;18.282;2022-09-24T17:14:12;4.890000;;4.860000;4.620000;;;;;;
43196;SPS30;28816;49.852;18.282;2022-09-24T17:19:14;5.570000;;5.590000;5.220000;;;;;;
43196;SPS30;28816;49.852;18.282;2022-09-24T17:24:17;6.100000;;6.110000;5.780000;;;;;;
43196;SPS30;28816;49.852;18.282;2022-09-24T17:29:19;7.120000;;7.110000;6.760000;;;;;;
43196;SPS30;28816;49.852;18.282;2022-09-24T17:34:21;7.530000;;7.580000;7.100000;;;;;;
43196;SPS30;28816;49.852;18.282;2022-09-24T17:39:22;7.770000;;7.740000;7.340000;;;;;;
43196;SPS30;28816;49.852;18.282;2022-09-24T17:44:24;7.140000;;7.130000;6.740000;;;;;;
43196;SPS30;28816;49.852;18.282;2022-09-24T17:49:26;6.980000;;6.960000;6.630000;;;;;;
43196;SPS30;28816;49.852;18.282;2022-09-24T17:54:28;6.330000;;6.270000;6.050000;;;;;;
43196;SPS30;28816;49.852;18.282;2022-09-24T17:59:30;7.010000;;7.020000;6.570000;;;;;;
43196;SPS30;28816;49.852;18.282;2022-09-24T18:04:32;7.270000;;7.300000;6.830000;;;;;;
43196;SPS30;28816;49.852;18.282;2022-09-24T18:09:34;8.160000;;8.150000;7.800000;;;;;;
43196;SPS30;28816;49.852;18.282;2022-09-24T18:14:35;8.200000;;8.240000;7.770000;;;;;;
43196;SPS30;28816;49.852;18.282;2022-09-24T18:19:38;8.100000;;8.190000;7.630000;;;;;;
43196;SPS30;28816;49.852;18.282;2022-09-24T18:24:39;7.250000;;7.220000;6.890000;;;;;;
43196;SPS30;28816;49.852;18.282;2022-09-24T18:29:42;7.780000;;7.760000;7.400000;;;;;;
43196;SPS30;28816;49.852;18.282;2022-09-24T18:34:43;9.430000;;9.410000;8.930000;;;;;;
43196;SPS30;28816;49.852;18.282;2022-09-24T18:39:46;9.270000;;9.280000;8.730000;;;;;;
43196;SPS30;28816;49.852;18.282;2022-09-24T18:44:48;9.690000;;9.640000;9.180000;;;;;;
43196;SPS30;28816;49.852;18.282;2022-09-24T18:49:49;8.460000;;8.460000;8.020000;;;;;;
43196;SPS30;28816;49.852;18.282;2022-09-24T18:54:52;8.770000;;8.840000;8.230000;;;;;;
43196;SPS30;28816;49.852;18.282;2022-09-24T18:59:53;9.480000;;9.420000;8.960000;;;;;;
43196;SPS30;28816;49.852;18.282;2022-09-24T19:04:55;9.150000;;9.090000;8.710000;;;;;;
43196;SPS30;28816;49.852;18.282;2022-09-24T19:09:57;11.530000;;11.540000;10.870000;;;;;;
43196;SPS30;28816;49.852;18.282;2022-09-24T19:14:59;10.560000;;10.460000;9.900000;;;;;;
43196;SPS30;28816;49.852;18.282;2022-09-24T19:20:01;8.330000;;8.360000;7.840000;;;;;;
43196;SPS30;28816;49.852;18.282;2022-09-24T19:25:03;8.930000;;8.980000;8.390000;;;;;;
43196;SPS30;28816;49.852;18.282;2022-09-24T19:30:06;10.590000;;10.630000;9.970000;;;;;;
43196;SPS30;28816;49.852;18.282;2022-09-24T19:35:08;9.540000;;9.550000;8.920000;;;;;;
43196;SPS30;28816;49.852;18.282;2022-09-24T19:40:11;10.370000;;10.320000;9.810000;;;;;;
43196;SPS30;28816;49.852;18.282;2022-09-24T19:45:13;10.330000;;10.340000;9.790000;;;;;;
43196;SPS30;28816;49.852;18.282;2022-09-24T19:50:15;11.480000;;11.450000;10.880000;;;;;;
43196;SPS30;28816;49.852;18.282;2022-09-24T19:55:16;13.550000;;13.570000;12.820000;;;;;;
43196;SPS30;28816;49.852;18.282;2022-09-24T20:00:18;12.800000;;12.800000;12.110000;;;;;;
43196;SPS30;28816;49.852;18.282;2022-09-24T20:05:20;12.920000;;12.830000;12.270000;;;;;;
43196;SPS30;28816;49.852;18.282;2022-09-24T20:10:22;13.120000;;13.160000;12.310000;;;;;;
43196;SPS30;28816;49.852;18.282;2022-09-24T20:15:24;11.990000;;12.040000;11.290000;;;;;;
43196;SPS30;28816;49.852;18.282;2022-09-24T20:20:26;12.050000;;12.130000;11.360000;;;;;;
43196;SPS30;28816;49.852;18.282;2022-09-24T20:25:28;12.520000;;12.500000;11.800000;;;;;;
43196;SPS30;28816;49.852;18.282;2022-09-24T20:30:30;14.130000;;14.120000;13.440000;;;;;;
43196;SPS30;28816;49.852;18.282;2022-09-24T20:35:32;13.780000;;13.680000;13.050000;;;;;;
43196;SPS30;28816;49.852;18.282;2022-09-24T20:40:35;14.940000;;14.900000;14.150000;;;;;;
43196;SPS30;28816;49.852;18.282;2022-09-24T20:45:38;14.980000;;14.860000;14.150000;;;;;;
43196;SPS30;28816;49.852;18.282;2022-09-24T20:50:39;16.590000;;16.530000;15.710000;;;;;;
43196;SPS30;28816;49.852;18.282;2022-09-24T20:55:42;16.500000;;16.420000;15.660000;;;;;;
43196;SPS30;28816;49.852;18.282;2022-09-24T21:00:43;15.830000;;15.800000;14.860000;;;;;;
43196;SPS30;28816;49.852;18.282;2022-09-24T21:05:48;16.780000;;16.750000;15.920000;;;;;;
43196;SPS30;28816;49.852;18.282;2022-09-24T21:10:51;16.380000;;16.390000;15.480000;;;;;;
43196;SPS30;28816;49.852;18.282;2022-09-24T21:15:58;16.780000;;16.750000;15.780000;;;;;;
43196;SPS30;28816;49.852;18.282;2022-09-24T21:21:01;15.690000;;15.740000;14.800000;;;;;;
43196;SPS30;28816;49.852;18.282;2022-09-24T21:26:03;16.960000;;16.960000;15.890000;;;;;;
43196;SPS30;28816;49.852;18.282;2022-09-24T21:31:07;17.930000;;17.880000;16.900000;;;;;;
43196;SPS30;28816;49.852;18.282;2022-09-24T21:36:09;17.840000;;17.840000;16.830000;;;;;;
43196;SPS30;28816;49.852;18.282;2022-09-24T21:41:10;19.240000;;19.160000;18.190000;;;;;;
43196;SPS30;28816;49.852;18.282;2022-09-24T21:46:12;19.690000;;19.760000;18.350000;;;;;;
43196;SPS30;28816;49.852;18.282;2022-09-24T21:51:14;21.170000;;21.120000;19.700000;;;;;;
43196;SPS30;28816;49.852;18.282;2022-09-24T21:56:17;22.800000;;22.720000;21.590000;;;;;;
43196;SPS30;28816;49.852;18.282;2022-09-24T22:01:19;21.090000;;21.000000;19.680000;;;;;;
43196;SPS30;28816;49.852;18.282;2022-09-24T22:06:22;21.170000;;21.140000;20.060000;;;;;;
43196;SPS30;28816;49.852;18.282;2022-09-24T22:11:26;20.780000;;20.770000;19.670000;;;;;;
43196;SPS30;28816;49.852;18.282;2022-09-24T22:16:28;22.870000;;22.830000;21.670000;;;;;;
43196;SPS30;28816;49.852;18.282;2022-09-24T22:21:32;22.910000;;22.890000;21.750000;;;;;;
43196;SPS30;28816;49.852;18.282;2022-09-24T22:26:35;23.950000;;23.820000;22.340000;;;;;;
43196;SPS30;28816;49.852;18.282;2022-09-24T22:31:37;21.660000;;21.730000;20.460000;;;;;;
43196;SPS30;28816;49.852;18.282;2022-09-24T22:36:38;24.210000;;24.170000;22.720000;;;;;;
43196;SPS30;28816;49.852;18.282;2022-09-24T22:41:41;24.180000;;24.020000;22.740000;;;;;;
43196;SPS30;28816;49.852;18.282;2022-09-24T22:46:43;24.730000;;24.810000;23.340000;;;;;;
43196;SPS30;28816;49.852;18.282;2022-09-24T22:51:45;27.390000;;27.450000;25.860000;;;;;;